sensor_id;sensor_type;location;lat;lon;timestamp;P1;durP1;ratioP1;P2;durP2;ratioP2
1479;SDS011;732;51.698;4.886;2022-12-18T00:00:12;62.88;;;18.35;;
1479;SDS011;732;51.698;4.886;2022-12-18T00:02:44;63.03;;;17.35;;
1479;SDS011;732;51.698;4.886;2022-12-18T00:05:12;57.40;;;18.95;;
1479;SDS011;732;51.698;4.886;2022-12-18T00:07:41;83.88;;;19.20;;
1479;SDS011;732;51.698;4.886;2022-12-18T00:10:09;57.97;;;18.52;;
1479;SDS011;732;51.698;4.886;2022-12-18T00:12:42;62.05;;;18.17;;
1479;SDS011;732;51.698;4.886;2022-12-18T00:15:10;86.80;;;20.40;;
1479;SDS011;732;51.698;4.886;2022-12-18T00:17:39;60.78;;;20.65;;
1479;SDS011;732;51.698;4.886;2022-12-18T00:20:08;61.90;;;19.67;;
1479;SDS011;732;51.698;4.886;2022-12-18T00:22:37;68.97;;;18.52;;
1479;SDS011;732;51.698;4.886;2022-12-18T00:25:07;60.85;;;17.33;;
1479;SDS011;732;51.698;4.886;2022-12-18T00:27:36;68.28;;;19.15;;
1479;SDS011;732;51.698;4.886;2022-12-18T00:30:07;60.70;;;17.38;;
1479;SDS011;732;51.698;4.886;2022-12-18T00:32:37;66.90;;;19.48;;
1479;SDS011;732;51.698;4.886;2022-12-18T00:35:06;69.00;;;20.33;;
1479;SDS011;732;51.698;4.886;2022-12-18T00:37:35;70.57;;;18.33;;
1479;SDS011;732;51.698;4.886;2022-12-18T00:40:04;62.72;;;18.40;;
1479;SDS011;732;51.698;4.886;2022-12-18T00:42:35;64.95;;;16.15;;
1479;SDS011;732;51.698;4.886;2022-12-18T00:45:26;51.45;;;17.88;;
1479;SDS011;732;51.698;4.886;2022-12-18T00:47:57;54.75;;;15.80;;
1479;SDS011;732;51.698;4.886;2022-12-18T00:50:25;52.95;;;17.27;;
1479;SDS011;732;51.698;4.886;2022-12-18T00:52:54;64.60;;;16.63;;
1479;SDS011;732;51.698;4.886;2022-12-18T00:55:22;68.10;;;19.33;;
1479;SDS011;732;51.698;4.886;2022-12-18T00:57:51;59.80;;;17.85;;
1479;SDS011;732;51.698;4.886;2022-12-18T01:00:20;63.13;;;17.10;;
1479;SDS011;732;51.698;4.886;2022-12-18T01:02:50;56.83;;;16.30;;
1479;SDS011;732;51.698;4.886;2022-12-18T01:05:19;62.17;;;18.63;;
1479;SDS011;732;51.698;4.886;2022-12-18T01:07:48;69.35;;;17.60;;
1479;SDS011;732;51.698;4.886;2022-12-18T01:10:16;62.83;;;17.67;;
1479;SDS011;732;51.698;4.886;2022-12-18T01:12:45;63.05;;;19.23;;
1479;SDS011;732;51.698;4.886;2022-12-18T01:15:16;70.18;;;17.83;;
1479;SDS011;732;51.698;4.886;2022-12-18T01:17:45;73.53;;;18.58;;
1479;SDS011;732;51.698;4.886;2022-12-18T01:20:15;67.88;;;17.92;;
1479;SDS011;732;51.698;4.886;2022-12-18T01:22:44;75.68;;;18.85;;
1479;SDS011;732;51.698;4.886;2022-12-18T01:25:12;61.95;;;18.83;;
1479;SDS011;732;51.698;4.886;2022-12-18T01:27:42;75.28;;;20.10;;
1479;SDS011;732;51.698;4.886;2022-12-18T01:30:11;62.92;;;19.08;;
1479;SDS011;732;51.698;4.886;2022-12-18T01:32:40;58.70;;;15.88;;
1479;SDS011;732;51.698;4.886;2022-12-18T01:35:08;59.80;;;16.83;;
1479;SDS011;732;51.698;4.886;2022-12-18T01:37:38;43.40;;;14.52;;
1479;SDS011;732;51.698;4.886;2022-12-18T01:40:07;69.85;;;16.83;;
1479;SDS011;732;51.698;4.886;2022-12-18T01:42:36;54.92;;;16.67;;
1479;SDS011;732;51.698;4.886;2022-12-18T01:45:06;57.80;;;16.45;;
1479;SDS011;732;51.698;4.886;2022-12-18T01:47:55;48.20;;;15.88;;
1479;SDS011;732;51.698;4.886;2022-12-18T01:50:28;43.85;;;14.35;;
1479;SDS011;732;51.698;4.886;2022-12-18T01:53:02;53.08;;;15.50;;
1479;SDS011;732;51.698;4.886;2022-12-18T01:55:35;63.55;;;17.15;;
1479;SDS011;732;51.698;4.886;2022-12-18T01:58:08;51.65;;;14.35;;
1479;SDS011;732;51.698;4.886;2022-12-18T02:00:37;58.53;;;16.08;;
1479;SDS011;732;51.698;4.886;2022-12-18T02:03:05;45.83;;;16.35;;
1479;SDS011;732;51.698;4.886;2022-12-18T02:05:45;51.40;;;16.33;;
1479;SDS011;732;51.698;4.886;2022-12-18T02:08:29;46.40;;;15.57;;
1479;SDS011;732;51.698;4.886;2022-12-18T02:11:05;60.58;;;14.25;;
1479;SDS011;732;51.698;4.886;2022-12-18T02:13:40;44.35;;;14.00;;
1479;SDS011;732;51.698;4.886;2022-12-18T02:16:18;43.25;;;14.05;;
1479;SDS011;732;51.698;4.886;2022-12-18T02:18:53;40.58;;;16.15;;
1479;SDS011;732;51.698;4.886;2022-12-18T02:21:28;50.35;;;15.57;;
1479;SDS011;732;51.698;4.886;2022-12-18T02:24:13;55.05;;;16.05;;
1479;SDS011;732;51.698;4.886;2022-12-18T02:26:56;53.85;;;14.85;;
1479;SDS011;732;51.698;4.886;2022-12-18T02:29:31;41.90;;;16.77;;
1479;SDS011;732;51.698;4.886;2022-12-18T02:32:05;39.92;;;12.05;;
1479;SDS011;732;51.698;4.886;2022-12-18T02:34:39;41.55;;;13.05;;
1479;SDS011;732;51.698;4.886;2022-12-18T02:37:13;48.03;;;15.63;;
1479;SDS011;732;51.698;4.886;2022-12-18T02:39:48;48.53;;;14.13;;
1479;SDS011;732;51.698;4.886;2022-12-18T02:42:21;36.05;;;12.15;;
1479;SDS011;732;51.698;4.886;2022-12-18T02:44:50;53.45;;;13.00;;
1479;SDS011;732;51.698;4.886;2022-12-18T02:47:24;46.35;;;13.32;;
1479;SDS011;732;51.698;4.886;2022-12-18T02:50:04;40.92;;;12.23;;
1479;SDS011;732;51.698;4.886;2022-12-18T02:52:41;44.63;;;11.95;;
1479;SDS011;732;51.698;4.886;2022-12-18T02:55:24;40.67;;;12.63;;
1479;SDS011;732;51.698;4.886;2022-12-18T02:58:11;36.15;;;12.27;;
1479;SDS011;732;51.698;4.886;2022-12-18T03:00:51;36.80;;;12.75;;
1479;SDS011;732;51.698;4.886;2022-12-18T03:03:28;46.35;;;12.68;;
1479;SDS011;732;51.698;4.886;2022-12-18T03:06:05;36.33;;;14.10;;
1479;SDS011;732;51.698;4.886;2022-12-18T03:08:39;44.15;;;13.23;;
1479;SDS011;732;51.698;4.886;2022-12-18T03:11:11;35.72;;;13.43;;
1479;SDS011;732;51.698;4.886;2022-12-18T03:13:45;41.25;;;14.48;;
1479;SDS011;732;51.698;4.886;2022-12-18T03:16:20;39.60;;;11.50;;
1479;SDS011;732;51.698;4.886;2022-12-18T03:18:56;42.28;;;12.50;;
1479;SDS011;732;51.698;4.886;2022-12-18T03:21:32;29.13;;;12.90;;
1479;SDS011;732;51.698;4.886;2022-12-18T03:24:05;66.90;;;13.98;;
1479;SDS011;732;51.698;4.886;2022-12-18T03:26:37;34.00;;;12.90;;
1479;SDS011;732;51.698;4.886;2022-12-18T03:29:16;51.75;;;13.40;;
1479;SDS011;732;51.698;4.886;2022-12-18T03:31:58;42.13;;;13.15;;
1479;SDS011;732;51.698;4.886;2022-12-18T03:34:32;35.50;;;13.13;;
1479;SDS011;732;51.698;4.886;2022-12-18T03:37:07;38.28;;;11.63;;
1479;SDS011;732;51.698;4.886;2022-12-18T03:39:35;58.47;;;12.93;;
1479;SDS011;732;51.698;4.886;2022-12-18T03:42:06;48.25;;;12.20;;
1479;SDS011;732;51.698;4.886;2022-12-18T03:44:51;38.22;;;10.68;;
1479;SDS011;732;51.698;4.886;2022-12-18T03:47:26;34.95;;;12.77;;
1479;SDS011;732;51.698;4.886;2022-12-18T03:50:03;31.63;;;9.80;;
1479;SDS011;732;51.698;4.886;2022-12-18T03:52:45;36.90;;;10.23;;
1479;SDS011;732;51.698;4.886;2022-12-18T03:55:21;31.95;;;9.80;;
1479;SDS011;732;51.698;4.886;2022-12-18T03:57:57;30.17;;;11.13;;
1479;SDS011;732;51.698;4.886;2022-12-18T04:00:39;29.10;;;11.32;;
1479;SDS011;732;51.698;4.886;2022-12-18T04:03:10;40.47;;;12.70;;
1479;SDS011;732;51.698;4.886;2022-12-18T04:05:44;35.53;;;11.02;;
1479;SDS011;732;51.698;4.886;2022-12-18T04:08:17;35.60;;;12.23;;
1479;SDS011;732;51.698;4.886;2022-12-18T04:10:55;27.60;;;10.50;;
1479;SDS011;732;51.698;4.886;2022-12-18T04:13:27;30.33;;;11.57;;
1479;SDS011;732;51.698;4.886;2022-12-18T04:16:03;37.90;;;10.55;;
1479;SDS011;732;51.698;4.886;2022-12-18T04:18:33;29.88;;;10.55;;
1479;SDS011;732;51.698;4.886;2022-12-18T04:21:02;42.50;;;13.07;;
1479;SDS011;732;51.698;4.886;2022-12-18T04:23:32;24.40;;;11.32;;
1479;SDS011;732;51.698;4.886;2022-12-18T04:26:01;25.80;;;10.18;;
1479;SDS011;732;51.698;4.886;2022-12-18T04:28:54;39.30;;;11.57;;
1479;SDS011;732;51.698;4.886;2022-12-18T04:31:24;33.35;;;12.13;;
1479;SDS011;732;51.698;4.886;2022-12-18T04:33:52;28.70;;;10.20;;
1479;SDS011;732;51.698;4.886;2022-12-18T04:36:21;28.23;;;12.07;;
1479;SDS011;732;51.698;4.886;2022-12-18T04:38:50;32.90;;;11.40;;
1479;SDS011;732;51.698;4.886;2022-12-18T04:41:19;27.25;;;11.55;;
1479;SDS011;732;51.698;4.886;2022-12-18T04:43:50;31.17;;;11.38;;
1479;SDS011;732;51.698;4.886;2022-12-18T04:46:18;30.27;;;10.80;;
1479;SDS011;732;51.698;4.886;2022-12-18T04:48:48;23.05;;;9.18;;
1479;SDS011;732;51.698;4.886;2022-12-18T04:51:17;22.80;;;10.40;;
1479;SDS011;732;51.698;4.886;2022-12-18T04:53:51;33.65;;;9.32;;
1479;SDS011;732;51.698;4.886;2022-12-18T04:56:20;22.80;;;9.70;;
1479;SDS011;732;51.698;4.886;2022-12-18T04:58:49;40.10;;;11.88;;
1479;SDS011;732;51.698;4.886;2022-12-18T05:01:17;27.88;;;10.45;;
1479;SDS011;732;51.698;4.886;2022-12-18T05:03:46;44.85;;;12.23;;
1479;SDS011;732;51.698;4.886;2022-12-18T05:06:16;33.22;;;11.15;;
1479;SDS011;732;51.698;4.886;2022-12-18T05:08:45;31.00;;;9.75;;
1479;SDS011;732;51.698;4.886;2022-12-18T05:11:13;24.85;;;9.13;;
1479;SDS011;732;51.698;4.886;2022-12-18T05:13:43;34.53;;;11.18;;
1479;SDS011;732;51.698;4.886;2022-12-18T05:16:12;27.33;;;10.93;;
1479;SDS011;732;51.698;4.886;2022-12-18T05:18:42;37.65;;;10.40;;
1479;SDS011;732;51.698;4.886;2022-12-18T05:21:12;29.33;;;9.70;;
1479;SDS011;732;51.698;4.886;2022-12-18T05:23:40;22.38;;;9.18;;
1479;SDS011;732;51.698;4.886;2022-12-18T05:26:09;21.75;;;10.18;;
1479;SDS011;732;51.698;4.886;2022-12-18T05:28:44;21.90;;;10.35;;
1479;SDS011;732;51.698;4.886;2022-12-18T05:31:13;28.80;;;11.93;;
1479;SDS011;732;51.698;4.886;2022-12-18T05:33:42;23.88;;;10.93;;
1479;SDS011;732;51.698;4.886;2022-12-18T05:36:12;19.42;;;8.75;;
1479;SDS011;732;51.698;4.886;2022-12-18T05:38:40;26.80;;;10.18;;
1479;SDS011;732;51.698;4.886;2022-12-18T05:41:08;34.53;;;9.98;;
1479;SDS011;732;51.698;4.886;2022-12-18T05:43:38;38.38;;;13.50;;
1479;SDS011;732;51.698;4.886;2022-12-18T05:46:09;32.00;;;9.38;;
1479;SDS011;732;51.698;4.886;2022-12-18T05:48:41;19.95;;;9.43;;
1479;SDS011;732;51.698;4.886;2022-12-18T05:51:13;29.98;;;10.93;;
1479;SDS011;732;51.698;4.886;2022-12-18T05:53:45;30.45;;;9.65;;
1479;SDS011;732;51.698;4.886;2022-12-18T05:56:16;25.73;;;9.65;;
1479;SDS011;732;51.698;4.886;2022-12-18T05:58:47;33.13;;;10.75;;
1479;SDS011;732;51.698;4.886;2022-12-18T06:01:20;25.42;;;9.40;;
1479;SDS011;732;51.698;4.886;2022-12-18T06:03:52;27.25;;;9.45;;
1479;SDS011;732;51.698;4.886;2022-12-18T06:06:24;29.92;;;10.30;;
1479;SDS011;732;51.698;4.886;2022-12-18T06:08:55;25.65;;;11.40;;
1479;SDS011;732;51.698;4.886;2022-12-18T06:11:25;22.17;;;8.82;;
1479;SDS011;732;51.698;4.886;2022-12-18T06:13:55;23.10;;;9.68;;
1479;SDS011;732;51.698;4.886;2022-12-18T06:16:26;23.02;;;8.45;;
1479;SDS011;732;51.698;4.886;2022-12-18T06:18:56;34.58;;;11.07;;
1479;SDS011;732;51.698;4.886;2022-12-18T06:21:26;16.38;;;7.78;;
1479;SDS011;732;51.698;4.886;2022-12-18T06:23:57;22.83;;;8.80;;
1479;SDS011;732;51.698;4.886;2022-12-18T06:26:25;19.83;;;9.30;;
1479;SDS011;732;51.698;4.886;2022-12-18T06:28:54;32.55;;;9.80;;
1479;SDS011;732;51.698;4.886;2022-12-18T06:31:23;17.05;;;7.75;;
1479;SDS011;732;51.698;4.886;2022-12-18T06:33:52;23.08;;;8.45;;
1479;SDS011;732;51.698;4.886;2022-12-18T06:36:21;27.30;;;9.60;;
1479;SDS011;732;51.698;4.886;2022-12-18T06:38:51;23.63;;;8.35;;
1479;SDS011;732;51.698;4.886;2022-12-18T06:41:20;25.58;;;8.90;;
1479;SDS011;732;51.698;4.886;2022-12-18T06:43:48;24.90;;;8.98;;
1479;SDS011;732;51.698;4.886;2022-12-18T06:46:23;17.08;;;7.85;;
1479;SDS011;732;51.698;4.886;2022-12-18T06:48:52;23.42;;;8.02;;
1479;SDS011;732;51.698;4.886;2022-12-18T06:51:21;27.30;;;9.45;;
1479;SDS011;732;51.698;4.886;2022-12-18T06:53:52;25.10;;;9.45;;
1479;SDS011;732;51.698;4.886;2022-12-18T06:56:20;21.40;;;9.15;;
1479;SDS011;732;51.698;4.886;2022-12-18T06:58:49;17.42;;;8.18;;
1479;SDS011;732;51.698;4.886;2022-12-18T07:01:17;25.02;;;8.45;;
1479;SDS011;732;51.698;4.886;2022-12-18T07:03:46;27.42;;;8.73;;
1479;SDS011;732;51.698;4.886;2022-12-18T07:06:20;25.83;;;8.75;;
1479;SDS011;732;51.698;4.886;2022-12-18T07:08:52;24.35;;;9.35;;
1479;SDS011;732;51.698;4.886;2022-12-18T07:11:22;25.98;;;8.30;;
1479;SDS011;732;51.698;4.886;2022-12-18T07:13:51;26.60;;;8.63;;
1479;SDS011;732;51.698;4.886;2022-12-18T07:16:20;16.83;;;7.88;;
1479;SDS011;732;51.698;4.886;2022-12-18T07:18:51;23.30;;;9.18;;
1479;SDS011;732;51.698;4.886;2022-12-18T07:21:22;22.88;;;8.50;;
1479;SDS011;732;51.698;4.886;2022-12-18T07:23:53;30.60;;;11.05;;
1479;SDS011;732;51.698;4.886;2022-12-18T07:26:22;21.60;;;8.23;;
1479;SDS011;732;51.698;4.886;2022-12-18T07:28:50;20.17;;;7.85;;
1479;SDS011;732;51.698;4.886;2022-12-18T07:31:24;22.95;;;9.00;;
1479;SDS011;732;51.698;4.886;2022-12-18T07:33:53;20.23;;;8.77;;
1479;SDS011;732;51.698;4.886;2022-12-18T07:36:22;21.27;;;10.73;;
1479;SDS011;732;51.698;4.886;2022-12-18T07:38:52;24.17;;;10.20;;
1479;SDS011;732;51.698;4.886;2022-12-18T07:41:21;20.67;;;9.20;;
1479;SDS011;732;51.698;4.886;2022-12-18T07:43:49;25.75;;;9.10;;
1479;SDS011;732;51.698;4.886;2022-12-18T07:46:18;24.45;;;9.40;;
1479;SDS011;732;51.698;4.886;2022-12-18T07:48:46;20.70;;;8.95;;
1479;SDS011;732;51.698;4.886;2022-12-18T07:51:16;32.05;;;10.38;;
1479;SDS011;732;51.698;4.886;2022-12-18T07:53:45;27.75;;;8.65;;
1479;SDS011;732;51.698;4.886;2022-12-18T07:56:19;22.98;;;10.50;;
1479;SDS011;732;51.698;4.886;2022-12-18T07:58:54;28.23;;;10.25;;
1479;SDS011;732;51.698;4.886;2022-12-18T08:01:23;23.27;;;10.77;;
1479;SDS011;732;51.698;4.886;2022-12-18T08:03:52;23.35;;;7.90;;
1479;SDS011;732;51.698;4.886;2022-12-18T08:06:20;26.05;;;9.15;;
1479;SDS011;732;51.698;4.886;2022-12-18T08:08:51;18.52;;;8.68;;
1479;SDS011;732;51.698;4.886;2022-12-18T08:11:21;26.23;;;9.40;;
1479;SDS011;732;51.698;4.886;2022-12-18T08:13:52;31.75;;;10.20;;
1479;SDS011;732;51.698;4.886;2022-12-18T08:16:21;25.60;;;8.25;;
1479;SDS011;732;51.698;4.886;2022-12-18T08:18:51;23.00;;;9.57;;
1479;SDS011;732;51.698;4.886;2022-12-18T08:21:22;22.55;;;9.43;;
1479;SDS011;732;51.698;4.886;2022-12-18T08:23:53;26.15;;;9.70;;
1479;SDS011;732;51.698;4.886;2022-12-18T08:26:27;26.05;;;9.82;;
1479;SDS011;732;51.698;4.886;2022-12-18T08:28:58;28.02;;;9.80;;
1479;SDS011;732;51.698;4.886;2022-12-18T08:31:28;22.08;;;9.05;;
1479;SDS011;732;51.698;4.886;2022-12-18T08:33:58;21.38;;;9.13;;
1479;SDS011;732;51.698;4.886;2022-12-18T08:36:26;20.98;;;8.82;;
1479;SDS011;732;51.698;4.886;2022-12-18T08:38:55;23.90;;;9.40;;
1479;SDS011;732;51.698;4.886;2022-12-18T08:41:27;26.48;;;9.55;;
1479;SDS011;732;51.698;4.886;2022-12-18T08:43:56;24.67;;;9.18;;
1479;SDS011;732;51.698;4.886;2022-12-18T08:46:43;30.35;;;11.82;;
1479;SDS011;732;51.698;4.886;2022-12-18T08:49:12;29.10;;;10.63;;
1479;SDS011;732;51.698;4.886;2022-12-18T08:51:40;28.65;;;11.30;;
1479;SDS011;732;51.698;4.886;2022-12-18T08:54:10;26.23;;;10.60;;
1479;SDS011;732;51.698;4.886;2022-12-18T08:56:41;22.80;;;7.90;;
1479;SDS011;732;51.698;4.886;2022-12-18T08:59:09;31.25;;;11.65;;
1479;SDS011;732;51.698;4.886;2022-12-18T09:01:45;35.97;;;11.10;;
1479;SDS011;732;51.698;4.886;2022-12-18T09:04:15;34.15;;;9.63;;
1479;SDS011;732;51.698;4.886;2022-12-18T09:06:43;31.27;;;10.75;;
1479;SDS011;732;51.698;4.886;2022-12-18T09:09:12;23.98;;;11.07;;
1479;SDS011;732;51.698;4.886;2022-12-18T09:11:42;25.50;;;10.10;;
1479;SDS011;732;51.698;4.886;2022-12-18T09:14:10;29.60;;;10.90;;
1479;SDS011;732;51.698;4.886;2022-12-18T09:16:39;28.45;;;10.25;;
1479;SDS011;732;51.698;4.886;2022-12-18T09:19:08;27.80;;;10.30;;
1479;SDS011;732;51.698;4.886;2022-12-18T09:21:37;31.77;;;11.73;;
1479;SDS011;732;51.698;4.886;2022-12-18T09:24:13;32.08;;;12.40;;
1479;SDS011;732;51.698;4.886;2022-12-18T09:26:44;26.42;;;10.68;;
1479;SDS011;732;51.698;4.886;2022-12-18T09:29:13;20.50;;;9.30;;
1479;SDS011;732;51.698;4.886;2022-12-18T09:31:44;22.27;;;10.52;;
1479;SDS011;732;51.698;4.886;2022-12-18T09:34:13;27.02;;;11.35;;
1479;SDS011;732;51.698;4.886;2022-12-18T09:36:41;23.88;;;10.70;;
1479;SDS011;732;51.698;4.886;2022-12-18T09:39:10;26.92;;;11.30;;
1479;SDS011;732;51.698;4.886;2022-12-18T09:41:44;29.38;;;13.27;;
1479;SDS011;732;51.698;4.886;2022-12-18T09:44:18;29.92;;;11.52;;
1479;SDS011;732;51.698;4.886;2022-12-18T09:46:54;26.13;;;10.77;;
1479;SDS011;732;51.698;4.886;2022-12-18T09:49:39;26.02;;;10.55;;
1479;SDS011;732;51.698;4.886;2022-12-18T09:52:12;30.70;;;11.35;;
1479;SDS011;732;51.698;4.886;2022-12-18T09:54:49;28.83;;;12.00;;
1479;SDS011;732;51.698;4.886;2022-12-18T09:57:24;23.38;;;10.68;;
1479;SDS011;732;51.698;4.886;2022-12-18T09:59:54;28.70;;;11.63;;
1479;SDS011;732;51.698;4.886;2022-12-18T10:02:36;33.08;;;12.10;;
1479;SDS011;732;51.698;4.886;2022-12-18T10:05:06;29.23;;;11.23;;
1479;SDS011;732;51.698;4.886;2022-12-18T10:07:45;25.35;;;11.75;;
1479;SDS011;732;51.698;4.886;2022-12-18T10:10:29;32.08;;;13.07;;
1479;SDS011;732;51.698;4.886;2022-12-18T10:16:02;34.58;;;11.10;;
1479;SDS011;732;51.698;4.886;2022-12-18T10:21:39;37.30;;;11.70;;
1479;SDS011;732;51.698;4.886;2022-12-18T10:24:18;31.75;;;11.63;;
1479;SDS011;732;51.698;4.886;2022-12-18T10:26:56;35.58;;;12.98;;
1479;SDS011;732;51.698;4.886;2022-12-18T10:29:39;27.17;;;11.48;;
1479;SDS011;732;51.698;4.886;2022-12-18T10:32:13;29.13;;;13.73;;
1479;SDS011;732;51.698;4.886;2022-12-18T10:34:45;28.38;;;10.80;;
1479;SDS011;732;51.698;4.886;2022-12-18T10:37:16;30.13;;;13.18;;
1479;SDS011;732;51.698;4.886;2022-12-18T10:39:46;30.23;;;13.38;;
1479;SDS011;732;51.698;4.886;2022-12-18T10:42:32;27.25;;;11.85;;
1479;SDS011;732;51.698;4.886;2022-12-18T10:45:03;29.88;;;12.40;;
1479;SDS011;732;51.698;4.886;2022-12-18T10:47:42;31.83;;;13.20;;
1479;SDS011;732;51.698;4.886;2022-12-18T10:50:18;31.35;;;12.68;;
1479;SDS011;732;51.698;4.886;2022-12-18T10:53:14;29.30;;;11.10;;
1479;SDS011;732;51.698;4.886;2022-12-18T10:55:49;30.98;;;12.65;;
1479;SDS011;732;51.698;4.886;2022-12-18T10:58:22;30.27;;;12.95;;
1479;SDS011;732;51.698;4.886;2022-12-18T11:01:08;33.47;;;12.85;;
1479;SDS011;732;51.698;4.886;2022-12-18T11:03:40;28.77;;;11.73;;
1479;SDS011;732;51.698;4.886;2022-12-18T11:06:11;30.10;;;11.55;;
1479;SDS011;732;51.698;4.886;2022-12-18T11:08:42;27.80;;;10.85;;
1479;SDS011;732;51.698;4.886;2022-12-18T11:11:26;29.48;;;11.18;;
1479;SDS011;732;51.698;4.886;2022-12-18T11:13:58;26.67;;;11.82;;
1479;SDS011;732;51.698;4.886;2022-12-18T11:16:33;29.30;;;12.02;;
1479;SDS011;732;51.698;4.886;2022-12-18T11:19:31;32.13;;;12.05;;
1479;SDS011;732;51.698;4.886;2022-12-18T11:22:02;21.95;;;10.55;;
1479;SDS011;732;51.698;4.886;2022-12-18T11:24:51;28.20;;;12.23;;
1479;SDS011;732;51.698;4.886;2022-12-18T11:27:47;26.20;;;11.30;;
1479;SDS011;732;51.698;4.886;2022-12-18T11:30:22;28.02;;;11.35;;
1479;SDS011;732;51.698;4.886;2022-12-18T11:32:57;27.83;;;11.10;;
1479;SDS011;732;51.698;4.886;2022-12-18T11:35:33;27.60;;;11.35;;
1479;SDS011;732;51.698;4.886;2022-12-18T11:38:12;28.08;;;12.25;;
1479;SDS011;732;51.698;4.886;2022-12-18T11:40:50;21.92;;;9.50;;
1479;SDS011;732;51.698;4.886;2022-12-18T11:43:26;27.42;;;11.68;;
1479;SDS011;732;51.698;4.886;2022-12-18T11:46:00;30.45;;;12.23;;
1479;SDS011;732;51.698;4.886;2022-12-18T11:48:41;26.38;;;10.70;;
1479;SDS011;732;51.698;4.886;2022-12-18T11:51:16;26.25;;;11.13;;
1479;SDS011;732;51.698;4.886;2022-12-18T11:53:53;26.75;;;11.40;;
1479;SDS011;732;51.698;4.886;2022-12-18T11:56:26;33.45;;;12.13;;
1479;SDS011;732;51.698;4.886;2022-12-18T11:59:04;27.67;;;11.52;;
1479;SDS011;732;51.698;4.886;2022-12-18T12:01:46;21.65;;;10.55;;
1479;SDS011;732;51.698;4.886;2022-12-18T12:04:26;28.40;;;11.70;;
1479;SDS011;732;51.698;4.886;2022-12-18T12:07:25;28.15;;;11.07;;
1479;SDS011;732;51.698;4.886;2022-12-18T12:10:13;23.75;;;10.30;;
1479;SDS011;732;51.698;4.886;2022-12-18T12:12:58;23.85;;;11.68;;
1479;SDS011;732;51.698;4.886;2022-12-18T12:15:44;20.90;;;9.65;;
1479;SDS011;732;51.698;4.886;2022-12-18T12:18:28;25.95;;;11.55;;
1479;SDS011;732;51.698;4.886;2022-12-18T12:21:12;25.95;;;11.25;;
1479;SDS011;732;51.698;4.886;2022-12-18T12:23:47;25.67;;;11.85;;
1479;SDS011;732;51.698;4.886;2022-12-18T12:26:27;26.95;;;11.75;;
1479;SDS011;732;51.698;4.886;2022-12-18T12:29:06;31.48;;;11.70;;
1479;SDS011;732;51.698;4.886;2022-12-18T12:31:56;24.85;;;11.25;;
1479;SDS011;732;51.698;4.886;2022-12-18T12:34:42;33.58;;;11.50;;
1479;SDS011;732;51.698;4.886;2022-12-18T12:37:31;25.83;;;11.80;;
1479;SDS011;732;51.698;4.886;2022-12-18T12:40:13;28.60;;;12.00;;
1479;SDS011;732;51.698;4.886;2022-12-18T12:43:10;29.25;;;11.80;;
1479;SDS011;732;51.698;4.886;2022-12-18T12:45:50;22.17;;;11.75;;
1479;SDS011;732;51.698;4.886;2022-12-18T12:48:31;26.17;;;11.70;;
1479;SDS011;732;51.698;4.886;2022-12-18T12:51:10;25.10;;;11.23;;
1479;SDS011;732;51.698;4.886;2022-12-18T12:53:47;27.83;;;11.30;;
1479;SDS011;732;51.698;4.886;2022-12-18T12:56:19;30.08;;;11.68;;
1479;SDS011;732;51.698;4.886;2022-12-18T12:58:51;28.42;;;12.10;;
1479;SDS011;732;51.698;4.886;2022-12-18T13:01:32;21.77;;;10.07;;
1479;SDS011;732;51.698;4.886;2022-12-18T13:04:12;26.02;;;10.73;;
1479;SDS011;732;51.698;4.886;2022-12-18T13:06:53;28.10;;;12.23;;
1479;SDS011;732;51.698;4.886;2022-12-18T13:09:31;27.05;;;10.95;;
1479;SDS011;732;51.698;4.886;2022-12-18T13:12:04;34.28;;;11.90;;
1479;SDS011;732;51.698;4.886;2022-12-18T13:15:11;27.15;;;11.88;;
1479;SDS011;732;51.698;4.886;2022-12-18T13:17:47;25.52;;;11.70;;
1479;SDS011;732;51.698;4.886;2022-12-18T13:20:16;23.33;;;12.25;;
1479;SDS011;732;51.698;4.886;2022-12-18T13:22:46;26.40;;;10.18;;
1479;SDS011;732;51.698;4.886;2022-12-18T13:25:29;31.65;;;12.23;;
1479;SDS011;732;51.698;4.886;2022-12-18T13:28:02;26.80;;;11.70;;
1479;SDS011;732;51.698;4.886;2022-12-18T13:30:52;24.27;;;10.95;;
1479;SDS011;732;51.698;4.886;2022-12-18T13:33:34;30.35;;;11.70;;
1479;SDS011;732;51.698;4.886;2022-12-18T13:36:30;27.38;;;11.30;;
1479;SDS011;732;51.698;4.886;2022-12-18T13:45:35;22.23;;;11.25;;
1479;SDS011;732;51.698;4.886;2022-12-18T13:48:21;27.40;;;11.80;;
1479;SDS011;732;51.698;4.886;2022-12-18T13:50:55;32.50;;;13.25;;
1479;SDS011;732;51.698;4.886;2022-12-18T13:53:30;30.65;;;12.43;;
1479;SDS011;732;51.698;4.886;2022-12-18T13:56:05;27.52;;;11.85;;
1479;SDS011;732;51.698;4.886;2022-12-18T13:58:37;26.35;;;12.63;;
1479;SDS011;732;51.698;4.886;2022-12-18T14:01:10;26.73;;;12.80;;
1479;SDS011;732;51.698;4.886;2022-12-18T14:03:50;32.87;;;13.47;;
1479;SDS011;732;51.698;4.886;2022-12-18T14:06:18;31.38;;;13.75;;
1479;SDS011;732;51.698;4.886;2022-12-18T14:08:49;34.22;;;13.48;;
1479;SDS011;732;51.698;4.886;2022-12-18T14:11:18;33.25;;;13.63;;
1479;SDS011;732;51.698;4.886;2022-12-18T14:13:53;24.97;;;12.27;;
1479;SDS011;732;51.698;4.886;2022-12-18T14:16:21;32.92;;;14.70;;
1479;SDS011;732;51.698;4.886;2022-12-18T14:18:52;30.90;;;12.70;;
1479;SDS011;732;51.698;4.886;2022-12-18T14:21:33;29.80;;;13.53;;
1479;SDS011;732;51.698;4.886;2022-12-18T14:24:03;33.30;;;13.30;;
1479;SDS011;732;51.698;4.886;2022-12-18T14:26:45;29.33;;;11.63;;
1479;SDS011;732;51.698;4.886;2022-12-18T14:29:24;26.37;;;13.10;;
1479;SDS011;732;51.698;4.886;2022-12-18T14:32:09;32.23;;;12.30;;
1479;SDS011;732;51.698;4.886;2022-12-18T14:34:43;29.00;;;12.80;;
1479;SDS011;732;51.698;4.886;2022-12-18T14:37:15;25.38;;;11.50;;
1479;SDS011;732;51.698;4.886;2022-12-18T14:39:54;25.95;;;11.63;;
1479;SDS011;732;51.698;4.886;2022-12-18T14:42:26;32.05;;;12.63;;
1479;SDS011;732;51.698;4.886;2022-12-18T14:48:08;23.50;;;11.38;;
1479;SDS011;732;51.698;4.886;2022-12-18T14:50:56;30.08;;;12.32;;
1479;SDS011;732;51.698;4.886;2022-12-18T14:53:37;25.77;;;11.60;;
1479;SDS011;732;51.698;4.886;2022-12-18T14:56:18;28.88;;;12.38;;
1479;SDS011;732;51.698;4.886;2022-12-18T14:58:50;29.52;;;12.93;;
1479;SDS011;732;51.698;4.886;2022-12-18T15:01:25;28.98;;;13.40;;
1479;SDS011;732;51.698;4.886;2022-12-18T15:03:57;28.50;;;12.27;;
1479;SDS011;732;51.698;4.886;2022-12-18T15:06:29;32.03;;;13.70;;
1479;SDS011;732;51.698;4.886;2022-12-18T15:09:03;25.13;;;13.70;;
1479;SDS011;732;51.698;4.886;2022-12-18T15:11:47;29.70;;;11.10;;
1479;SDS011;732;51.698;4.886;2022-12-18T15:14:23;25.13;;;11.07;;
1479;SDS011;732;51.698;4.886;2022-12-18T15:17:03;25.90;;;11.52;;
1479;SDS011;732;51.698;4.886;2022-12-18T15:19:42;26.90;;;11.90;;
1479;SDS011;732;51.698;4.886;2022-12-18T15:22:16;26.60;;;12.17;;
1479;SDS011;732;51.698;4.886;2022-12-18T15:24:52;28.13;;;11.98;;
1479;SDS011;732;51.698;4.886;2022-12-18T15:27:26;25.95;;;11.85;;
1479;SDS011;732;51.698;4.886;2022-12-18T15:30:03;31.67;;;12.80;;
1479;SDS011;732;51.698;4.886;2022-12-18T15:32:51;34.15;;;12.15;;
1479;SDS011;732;51.698;4.886;2022-12-18T15:35:39;26.73;;;11.65;;
1479;SDS011;732;51.698;4.886;2022-12-18T15:38:12;27.33;;;10.95;;
1479;SDS011;732;51.698;4.886;2022-12-18T15:40:41;29.20;;;11.32;;
1479;SDS011;732;51.698;4.886;2022-12-18T15:43:09;26.83;;;11.70;;
1479;SDS011;732;51.698;4.886;2022-12-18T15:45:57;25.85;;;11.48;;
1479;SDS011;732;51.698;4.886;2022-12-18T15:48:27;25.92;;;12.25;;
1479;SDS011;732;51.698;4.886;2022-12-18T15:50:56;24.48;;;10.73;;
1479;SDS011;732;51.698;4.886;2022-12-18T15:53:26;32.80;;;11.93;;
1479;SDS011;732;51.698;4.886;2022-12-18T15:55:58;25.65;;;10.95;;
1479;SDS011;732;51.698;4.886;2022-12-18T15:58:44;28.10;;;11.50;;
1479;SDS011;732;51.698;4.886;2022-12-18T16:01:12;28.38;;;11.82;;